Time;durP1;ratioP1;P1;durP2;ratioP2;P2;SDS_P1;SDS_P2;PMS_P1;PMS_P2;Temp;Humidity;BMP_temperature;BMP_pressure;BME280_temperature;BME280_humidity;BME280_pressure;Samples;Min_cycle;Max_cycle;Signal;HPM_P1;HPM_P2
2023/02/16 00:00:32;;;;;;;5.65;4.22;;;;;;;;;;5139817;27;20035;-69
2023/02/16 00:02:58;;;;;;;6.20;3.67;;;;;;;;;;5142491;27;20030;-69
2023/02/16 00:05:25;;;;;;;5.65;3.70;;;;;;;;;;5141371;27;20022;-70
2023/02/16 00:07:52;;;;;;;5.35;3.95;;;;;;;;;;5139361;27;20049;-69
2023/02/16 00:10:18;;;;;;;6.18;4.57;;;;;;;;;;5137336;27;20099;-72
2023/02/16 00:15:29;;;;;;;6.30;3.95;;;;;;;;;;5141501;27;20033;-69
2023/02/16 00:17:56;;;;;;;7.15;4.78;;;;;;;;;;5131994;27;20017;-69
2023/02/16 00:20:22;;;;;;;12.57;4.30;;;;;;;;;;5135219;27;20025;-72
2023/02/16 00:22:49;;;;;;;6.18;4.70;;;;;;;;;;5126644;27;20047;-75
2023/02/16 00:25:15;;;;;;;5.25;4.30;;;;;;;;;;5132849;27;20451;-69
2023/02/16 00:27:41;;;;;;;6.80;4.75;;;;;;;;;;5131759;27;20033;-69
2023/02/16 00:30:19;;;;;;;6.25;4.13;;;;;;;;;;5141231;27;20504;-70
2023/02/16 00:32:45;;;;;;;8.88;4.50;;;;;;;;;;5136068;27;20101;-69
2023/02/16 00:35:18;;;;;;;6.78;4.10;;;;;;;;;;5128149;27;20487;-70
2023/02/16 00:37:44;;;;;;;7.55;4.63;;;;;;;;;;5130590;27;20072;-70
2023/02/16 00:40:12;;;;;;;9.00;4.68;;;;;;;;;;5136493;27;20029;-70
2023/02/16 00:42:38;;;;;;;8.57;4.28;;;;;;;;;;5125978;27;20033;-71
2023/02/16 00:45:04;;;;;;;6.03;4.18;;;;;;;;;;5135804;27;20052;-69
2023/02/16 00:47:38;;;;;;;7.25;4.35;;;;;;;;;;5126433;27;20027;-69
2023/02/16 00:50:15;;;;;;;6.18;4.38;;;;;;;;;;5135730;27;20133;-70
2023/02/16 00:52:41;;;;;;;8.40;4.65;;;;;;;;;;5131321;27;20019;-70
2023/02/16 00:55:12;;;;;;;8.13;4.70;;;;;;;;;;5133800;27;20048;-69
2023/02/16 00:57:40;;;;;;;8.23;4.78;;;;;;;;;;5133271;27;20015;-70
2023/02/16 01:00:15;;;;;;;7.65;4.22;;;;;;;;;;5130863;27;20410;-70
2023/02/16 01:02:42;;;;;;;8.13;4.35;;;;;;;;;;5131324;27;20424;-73
2023/02/16 01:05:08;;;;;;;6.60;4.43;;;;;;;;;;5129980;27;20019;-70
2023/02/16 01:13:04;;;;;;;8.30;4.95;;;;;;;;;;5134722;27;20034;-70
2023/02/16 01:15:30;;;;;;;7.15;4.32;;;;;;;;;;5134762;27;20022;-70
2023/02/16 01:17:57;;;;;;;5.80;4.20;;;;;;;;;;5127857;27;20031;-69
2023/02/16 01:20:24;;;;;;;5.88;4.30;;;;;;;;;;5141015;27;20114;-70
2023/02/16 01:22:50;;;;;;;8.02;4.45;;;;;;;;;;5135882;27;20038;-70
2023/02/16 01:25:16;;;;;;;5.97;4.30;;;;;;;;;;5141607;27;20037;-71
2023/02/16 01:27:43;;;;;;;5.88;4.68;;;;;;;;;;5132276;27;20133;-70
2023/02/16 01:30:18;;;;;;;5.40;4.18;;;;;;;;;;5136966;27;20600;-70
2023/02/16 01:32:50;;;;;;;6.47;4.57;;;;;;;;;;5134338;27;20030;-75
2023/02/16 01:35:17;;;;;;;6.00;4.28;;;;;;;;;;5135217;27;20035;-70
2023/02/16 01:37:43;;;;;;;8.32;4.38;;;;;;;;;;5140827;27;20042;-69
2023/02/16 01:40:32;;;;;;;6.60;4.47;;;;;;;;;;5135861;27;20026;-69
2023/02/16 01:43:02;;;;;;;5.55;4.43;;;;;;;;;;5123589;27;20042;-69
2023/02/16 01:45:32;;;;;;;6.68;4.50;;;;;;;;;;5137225;27;20019;-69
2023/02/16 01:48:02;;;;;;;7.40;4.00;;;;;;;;;;5133105;27;20020;-69
2023/02/16 01:50:39;;;;;;;7.47;4.75;;;;;;;;;;5138354;27;20584;-69
2023/02/16 01:53:10;;;;;;;7.07;5.03;;;;;;;;;;5135848;27;20035;-69
2023/02/16 01:55:39;;;;;;;7.00;4.28;;;;;;;;;;5135510;27;20106;-69
2023/02/16 01:58:12;;;;;;;5.30;3.95;;;;;;;;;;5133500;27;20654;-69
2023/02/16 02:00:53;;;;;;;8.65;4.32;;;;;;;;;;5134683;27;20074;-69
2023/02/16 02:06:07;;;;;;;6.68;4.43;;;;;;;;;;5134187;27;20038;-69
2023/02/16 02:08:39;;;;;;;6.47;4.57;;;;;;;;;;5143488;27;20021;-70
2023/02/16 02:11:16;;;;;;;6.63;4.32;;;;;;;;;;5131912;27;20110;-72
2023/02/16 02:13:45;;;;;;;6.90;4.60;;;;;;;;;;5139704;27;20027;-70
2023/02/16 02:16:12;;;;;;;10.75;4.88;;;;;;;;;;5142303;27;20030;-69
2023/02/16 02:18:38;;;;;;;6.43;4.28;;;;;;;;;;5134868;27;20015;-70
2023/02/16 02:24:11;;;;;;;5.70;4.30;;;;;;;;;;5137141;27;20408;-69
2023/02/16 02:26:48;;;;;;;6.43;4.35;;;;;;;;;;5132797;27;20067;-70
2023/02/16 02:29:14;;;;;;;6.82;4.90;;;;;;;;;;5133171;27;20033;-72
2023/02/16 02:31:47;;;;;;;7.13;4.50;;;;;;;;;;5137603;27;20034;-69
2023/02/16 02:34:19;;;;;;;6.30;4.25;;;;;;;;;;5143965;27;20018;-69
2023/02/16 02:37:01;;;;;;;6.57;4.40;;;;;;;;;;5140346;27;20022;-68
2023/02/16 02:39:34;;;;;;;6.20;4.20;;;;;;;;;;5142152;27;20025;-69
2023/02/16 02:42:06;;;;;;;6.25;4.20;;;;;;;;;;5134510;27;20463;-73
2023/02/16 02:44:48;;;;;;;6.38;4.32;;;;;;;;;;5135981;27;20075;-69
2023/02/16 02:47:14;;;;;;;7.47;4.50;;;;;;;;;;5136383;27;20019;-69
2023/02/16 02:49:41;;;;;;;8.75;4.70;;;;;;;;;;5134849;27;20095;-71
2023/02/16 02:52:07;;;;;;;6.38;4.45;;;;;;;;;;5140561;27;20030;-69
2023/02/16 03:03:04;;;;;;;6.05;4.45;;;;;;;;;;5132232;27;20077;-70
2023/02/16 03:05:32;;;;;;;6.90;5.20;;;;;;;;;;5117709;27;20496;-69
2023/02/16 03:08:05;;;;;;;5.75;4.55;;;;;;;;;;5132394;27;20019;-69
2023/02/16 03:13:24;;;;;;;7.55;4.30;;;;;;;;;;5140634;27;20153;-69
2023/02/16 03:15:50;;;;;;;;;;;;;;;;;;5134229;27;20039;-69
2023/02/16 03:29:21;;;;;;;8.55;4.68;;;;;;;;;;5133782;27;20079;-69
2023/02/16 03:31:50;;;;;;;8.38;4.70;;;;;;;;;;5085388;27;20026;-69
2023/02/16 03:34:19;;;;;;;5.90;4.30;;;;;;;;;;5034244;27;20390;-69
2023/02/16 03:36:48;;;;;;;8.88;4.82;;;;;;;;;;5135499;27;20031;-69
2023/02/16 03:39:14;;;;;;;7.35;4.90;;;;;;;;;;5134917;27;20034;-74
2023/02/16 03:41:42;;;;;;;6.72;4.50;;;;;;;;;;5124348;27;20027;-69
2023/02/16 03:44:09;;;;;;;5.78;4.28;;;;;;;;;;5133073;27;20035;-68
2023/02/16 03:46:35;;;;;;;5.30;4.20;;;;;;;;;;5130099;27;20079;-68
2023/02/16 03:49:01;;;;;;;6.15;4.35;;;;;;;;;;5139017;27;20034;-70
2023/02/16 03:51:27;;;;;;;6.20;4.60;;;;;;;;;;5128239;27;21217;-70
2023/02/16 03:53:54;;;;;;;5.90;4.43;;;;;;;;;;5132055;27;20015;-69
2023/02/16 03:56:20;;;;;;;5.95;4.43;;;;;;;;;;5137598;27;20462;-69
2023/02/16 03:58:46;;;;;;;6.57;3.95;;;;;;;;;;5133823;27;20032;-70
2023/02/16 04:01:12;;;;;;;5.43;4.47;;;;;;;;;;5132459;27;20148;-69
2023/02/16 04:03:38;;;;;;;7.95;4.53;;;;;;;;;;5132999;27;20041;-69
2023/02/16 04:06:05;;;;;;;9.00;4.78;;;;;;;;;;5131775;27;20027;-68
2023/02/16 04:08:31;;;;;;;8.27;4.90;;;;;;;;;;5127223;27;20498;-74
2023/02/16 04:10:57;;;;;;;19.50;5.22;;;;;;;;;;5136841;27;20066;-69
2023/02/16 04:13:24;;;;;;;8.32;4.40;;;;;;;;;;5143087;27;20620;-69
2023/02/16 04:15:50;;;;;;;9.13;4.85;;;;;;;;;;5124802;27;20031;-69
2023/02/16 04:18:16;;;;;;;6.20;4.30;;;;;;;;;;5131020;27;20023;-69
2023/02/16 04:20:42;;;;;;;5.65;4.47;;;;;;;;;;5131100;27;20030;-69
2023/02/16 04:23:08;;;;;;;7.50;4.63;;;;;;;;;;5132419;27;20557;-69
2023/02/16 04:25:34;;;;;;;7.38;5.15;;;;;;;;;;5128609;27;20023;-69
2023/02/16 04:28:01;;;;;;;7.38;4.78;;;;;;;;;;5130694;27;20062;-69
2023/02/16 04:30:28;;;;;;;6.82;4.85;;;;;;;;;;5138714;27;20022;-69
2023/02/16 04:32:55;;;;;;;5.60;4.55;;;;;;;;;;5132051;27;20061;-69
2023/02/16 04:35:21;;;;;;;6.95;4.70;;;;;;;;;;5129810;27;20011;-69
2023/02/16 04:37:48;;;;;;;6.47;4.22;;;;;;;;;;5134794;27;20026;-69
2023/02/16 04:40:15;;;;;;;6.88;4.57;;;;;;;;;;5134483;27;20025;-69
2023/02/16 04:42:41;;;;;;;8.60;5.00;;;;;;;;;;5123726;27;20035;-69
2023/02/16 04:45:08;;;;;;;6.05;4.55;;;;;;;;;;5120991;27;20411;-69
2023/02/16 04:47:34;;;;;;;6.03;4.30;;;;;;;;;;5144606;27;20486;-69
2023/02/16 04:50:00;;;;;;;6.30;5.00;;;;;;;;;;5142313;27;20466;-75
2023/02/16 04:52:26;;;;;;;8.07;4.88;;;;;;;;;;5133667;27;20033;-70
2023/02/16 04:54:52;;;;;;;6.43;4.35;;;;;;;;;;5130454;27;20026;-69
2023/02/16 04:57:21;;;;;;;8.25;4.63;;;;;;;;;;5139602;27;20690;-68
2023/02/16 04:59:47;;;;;;;5.70;4.35;;;;;;;;;;5138616;27;21182;-69
2023/02/16 05:02:13;;;;;;;7.22;4.50;;;;;;;;;;5132859;27;20117;-69
2023/02/16 05:04:40;;;;;;;7.60;4.60;;;;;;;;;;5139430;27;20023;-69
2023/02/16 05:07:07;;;;;;;5.85;4.35;;;;;;;;;;5131399;27;20394;-69
2023/02/16 05:09:33;;;;;;;6.35;4.80;;;;;;;;;;5136046;27;20591;-69
2023/02/16 05:14:44;;;;;;;7.30;4.65;;;;;;;;;;5141390;27;20077;-69
2023/02/16 05:17:12;;;;;;;8.07;4.60;;;;;;;;;;5134425;27;20453;-70
2023/02/16 05:19:38;;;;;;;10.45;5.53;;;;;;;;;;5134687;27;20543;-69
2023/02/16 05:22:04;;;;;;;6.85;4.80;;;;;;;;;;5135566;27;20473;-68
2023/02/16 05:24:30;;;;;;;11.00;4.80;;;;;;;;;;5137457;27;20026;-69
2023/02/16 05:26:56;;;;;;;8.27;4.50;;;;;;;;;;5137056;27;20099;-69
2023/02/16 05:29:23;;;;;;;6.45;4.72;;;;;;;;;;5133145;27;21176;-69
2023/02/16 05:31:49;;;;;;;8.40;4.82;;;;;;;;;;5141173;27;20061;-69
2023/02/16 05:34:15;;;;;;;7.15;4.63;;;;;;;;;;5138632;27;20019;-69
2023/02/16 05:36:41;;;;;;;6.97;4.53;;;;;;;;;;5141902;27;20033;-72
2023/02/16 05:39:07;;;;;;;6.95;4.68;;;;;;;;;;5142720;27;20027;-71
2023/02/16 05:41:33;;;;;;;7.82;5.07;;;;;;;;;;5136091;27;20027;-70
2023/02/16 05:44:00;;;;;;;8.27;4.70;;;;;;;;;;5131762;27;20023;-68
2023/02/16 05:46:28;;;;;;;6.93;5.18;;;;;;;;;;5134724;27;20125;-69
2023/02/16 05:48:54;;;;;;;8.40;5.03;;;;;;;;;;5138470;27;20893;-69
2023/02/16 05:51:21;;;;;;;6.40;4.50;;;;;;;;;;5140645;27;20071;-68
2023/02/16 05:53:47;;;;;;;7.72;5.00;;;;;;;;;;5131229;27;20027;-69
2023/02/16 05:56:14;;;;;;;8.48;5.20;;;;;;;;;;5133680;27;20134;-69
2023/02/16 05:58:40;;;;;;;7.28;4.68;;;;;;;;;;5129886;27;20024;-69
2023/02/16 06:01:06;;;;;;;7.82;4.68;;;;;;;;;;5138986;27;20501;-69
2023/02/16 06:03:34;;;;;;;9.43;4.82;;;;;;;;;;5138878;27;20027;-69
2023/02/16 06:06:01;;;;;;;11.38;5.20;;;;;;;;;;5134300;27;20529;-70
2023/02/16 06:08:27;;;;;;;6.57;4.65;;;;;;;;;;5133081;27;20030;-70
2023/02/16 06:10:54;;;;;;;6.15;4.70;;;;;;;;;;5136084;27;20015;-69
2023/02/16 06:13:21;;;;;;;7.35;4.70;;;;;;;;;;5134677;27;20033;-71
2023/02/16 06:15:48;;;;;;;7.68;4.93;;;;;;;;;;5135516;27;20103;-69
2023/02/16 06:18:14;;;;;;;7.60;4.72;;;;;;;;;;5139442;27;20111;-69
2023/02/16 06:20:41;;;;;;;8.25;5.20;;;;;;;;;;5136742;27;20034;-70
2023/02/16 06:23:08;;;;;;;6.55;4.75;;;;;;;;;;5130080;27;20042;-70
2023/02/16 06:25:34;;;;;;;6.70;4.25;;;;;;;;;;5137329;27;20087;-70
2023/02/16 06:28:00;;;;;;;7.80;5.28;;;;;;;;;;5130272;27;20053;-70
2023/02/16 06:30:26;;;;;;;6.88;5.20;;;;;;;;;;5132231;27;20095;-70
2023/02/16 06:32:52;;;;;;;9.25;5.60;;;;;;;;;;5134540;27;20027;-69
2023/02/16 06:35:19;;;;;;;7.97;4.70;;;;;;;;;;5135273;27;20015;-78
2023/02/16 06:37:45;;;;;;;6.43;5.18;;;;;;;;;;5134748;27;20027;-70
2023/02/16 06:40:13;;;;;;;7.85;5.10;;;;;;;;;;5135351;27;20022;-70
2023/02/16 06:42:39;;;;;;;6.95;4.80;;;;;;;;;;5127850;27;20679;-69
2023/02/16 06:45:07;;;;;;;6.50;5.18;;;;;;;;;;5134612;27;20484;-69
2023/02/16 06:47:33;;;;;;;9.20;5.60;;;;;;;;;;5127615;27;20027;-70
2023/02/16 06:49:59;;;;;;;8.15;5.30;;;;;;;;;;5132040;27;20467;-70
2023/02/16 06:52:26;;;;;;;9.38;5.53;;;;;;;;;;5138249;27;20479;-70
2023/02/16 06:54:52;;;;;;;9.43;5.10;;;;;;;;;;5131743;27;20888;-77
2023/02/16 06:57:18;;;;;;;6.25;4.95;;;;;;;;;;5131775;27;20630;-71
2023/02/16 06:59:44;;;;;;;5.95;4.60;;;;;;;;;;5129594;27;20463;-70
2023/02/16 07:02:10;;;;;;;5.72;4.68;;;;;;;;;;5138160;27;20372;-72
2023/02/16 07:04:37;;;;;;;7.13;5.20;;;;;;;;;;5126551;27;20035;-76
2023/02/16 07:07:03;;;;;;;7.45;5.50;;;;;;;;;;5133518;27;20035;-70
2023/02/16 07:09:29;;;;;;;9.70;5.43;;;;;;;;;;5131247;27;20038;-70
2023/02/16 07:11:55;;;;;;;11.23;5.38;;;;;;;;;;5131172;27;20485;-74
2023/02/16 07:14:22;;;;;;;10.40;5.82;;;;;;;;;;5132868;27;20105;-69
2023/02/16 07:16:48;;;;;;;5.95;4.65;;;;;;;;;;5136111;27;20050;-70
2023/02/16 07:19:14;;;;;;;8.25;5.32;;;;;;;;;;5131475;27;20067;-70
2023/02/16 07:21:41;;;;;;;11.15;7.05;;;;;;;;;;5127856;27;20095;-70
2023/02/16 07:24:07;;;;;;;10.13;7.20;;;;;;;;;;5133212;27;20034;-70
2023/02/16 07:26:33;;;;;;;8.57;5.80;;;;;;;;;;5113374;27;20527;-69
2023/02/16 07:28:59;;;;;;;6.07;5.30;;;;;;;;;;5132810;27;20030;-70
2023/02/16 07:31:25;;;;;;;9.07;6.15;;;;;;;;;;5131485;27;20022;-68
2023/02/16 07:33:52;;;;;;;7.00;6.07;;;;;;;;;;5132726;27;20646;-70
2023/02/16 07:36:18;;;;;;;10.43;7.00;;;;;;;;;;5114513;27;20530;-70
2023/02/16 07:38:44;;;;;;;14.30;9.93;;;;;;;;;;5129129;27;20072;-70
2023/02/16 07:41:11;;;;;;;19.33;8.85;;;;;;;;;;5130158;27;20018;-69
2023/02/16 07:43:38;;;;;;;10.60;7.15;;;;;;;;;;5138991;27;20031;-69
2023/02/16 07:46:04;;;;;;;9.15;6.65;;;;;;;;;;5140156;27;20388;-69
2023/02/16 07:48:31;;;;;;;8.93;5.57;;;;;;;;;;5132193;27;20046;-69
2023/02/16 07:50:57;;;;;;;8.15;6.07;;;;;;;;;;5138754;27;20023;-70
2023/02/16 07:53:23;;;;;;;12.38;5.80;;;;;;;;;;5133304;27;20029;-69
2023/02/16 07:55:49;;;;;;;14.57;7.32;;;;;;;;;;5118888;27;20022;-69
2023/02/16 08:16:18;;;;;;;11.70;5.75;;;;;;;;;;5157674;27;20456;-70
2023/02/16 08:18:45;;;;;;;6.68;5.35;;;;;;;;;;5155640;27;20080;-72
2023/02/16 08:21:15;;;;;;;9.07;5.68;;;;;;;;;;5158226;27;20679;-70
2023/02/16 08:23:46;;;;;;;7.18;5.00;;;;;;;;;;5146170;27;20031;-71
2023/02/16 08:26:12;;;;;;;6.43;4.93;;;;;;;;;;5164787;27;20046;-74
2023/02/16 08:28:44;;;;;;;7.47;5.32;;;;;;;;;;5145179;27;20634;-71
2023/02/16 08:31:15;;;;;;;6.95;5.80;;;;;;;;;;5161648;27;20038;-70
2023/02/16 08:33:42;;;;;;;11.90;7.35;;;;;;;;;;5150938;27;20026;-70
2023/02/16 08:36:31;;;;;;;12.05;8.55;;;;;;;;;;5162099;27;20043;-76
2023/02/16 08:38:57;;;;;;;14.93;8.13;;;;;;;;;;5160232;27;20113;-74
2023/02/16 08:41:25;;;;;;;10.00;7.82;;;;;;;;;;5155092;27;20042;-80
2023/02/16 08:43:52;;;;;;;11.93;7.82;;;;;;;;;;5150476;27;20080;-75
2023/02/16 08:46:18;;;;;;;12.05;8.23;;;;;;;;;;5162473;27;20090;-77
2023/02/16 08:48:44;;;;;;;15.32;10.52;;;;;;;;;;5154973;27;20638;-73
2023/02/16 08:51:17;;;;;;;19.48;10.82;;;;;;;;;;5159115;27;20093;-69
2023/02/16 08:53:44;;;;;;;14.77;9.23;;;;;;;;;;5149256;27;20363;-70
2023/02/16 08:56:10;;;;;;;12.23;8.38;;;;;;;;;;5159913;27;20530;-70
2023/02/16 08:58:37;;;;;;;11.30;8.07;;;;;;;;;;5157300;27;20035;-72
2023/02/16 09:01:07;;;;;;;14.10;8.93;;;;;;;;;;5158534;27;20023;-70
2023/02/16 09:03:34;;;;;;;12.02;7.82;;;;;;;;;;5160861;27;21107;-72
2023/02/16 09:06:02;;;;;;;13.13;7.72;;;;;;;;;;5158026;27;20023;-70
2023/02/16 09:08:28;;;;;;;11.85;7.30;;;;;;;;;;5144920;27;20405;-78
2023/02/16 09:10:54;;;;;;;9.20;7.20;;;;;;;;;;5138844;27;20083;-70
2023/02/16 09:13:21;;;;;;;8.82;6.47;;;;;;;;;;5140767;27;20033;-72
2023/02/16 09:15:47;;;;;;;8.13;5.90;;;;;;;;;;5130993;27;20043;-77
2023/02/16 09:18:14;;;;;;;10.38;6.95;;;;;;;;;;5126513;27;20494;-71
2023/02/16 09:20:41;;;;;;;9.30;6.90;;;;;;;;;;5122580;27;20035;-71
2023/02/16 09:23:09;;;;;;;10.57;6.25;;;;;;;;;;5123088;27;20611;-79
2023/02/16 09:25:36;;;;;;;7.90;5.93;;;;;;;;;;5122717;27;20027;-70
2023/02/16 09:28:03;;;;;;;8.90;5.90;;;;;;;;;;5126576;27;20079;-70
2023/02/16 09:30:29;;;;;;;9.05;5.82;;;;;;;;;;5122435;27;20029;-71
2023/02/16 09:32:55;;;;;;;9.52;6.40;;;;;;;;;;5125778;27;20023;-71
2023/02/16 09:35:21;;;;;;;9.48;6.72;;;;;;;;;;5127503;27;20042;-70
2023/02/16 09:37:48;;;;;;;9.18;6.10;;;;;;;;;;5128810;27;20027;-72
2023/02/16 09:40:15;;;;;;;9.23;5.85;;;;;;;;;;5123981;27;20037;-70
2023/02/16 09:42:55;;;;;;;7.57;5.85;;;;;;;;;;5121496;27;20047;-72
2023/02/16 09:45:23;;;;;;;9.63;6.20;;;;;;;;;;5125523;27;20700;-70
2023/02/16 09:47:51;;;;;;;8.77;5.55;;;;;;;;;;5122056;27;20497;-70
2023/02/16 09:50:22;;;;;;;8.70;6.30;;;;;;;;;;5117135;27;20023;-71
2023/02/16 09:52:55;;;;;;;7.38;6.03;;;;;;;;;;5122507;27;20084;-71
2023/02/16 09:55:23;;;;;;;11.10;6.05;;;;;;;;;;5126122;27;20459;-70
2023/02/16 09:57:55;;;;;;;8.38;6.60;;;;;;;;;;5124428;27;20031;-70
2023/02/16 10:00:34;;;;;;;8.43;6.30;;;;;;;;;;5123048;27;20566;-71
2023/02/16 10:03:08;;;;;;;9.00;6.10;;;;;;;;;;5119876;27;20031;-71
2023/02/16 10:05:41;;;;;;;8.60;6.55;;;;;;;;;;5123865;27;20033;-72
2023/02/16 10:08:10;;;;;;;8.10;5.97;;;;;;;;;;5120203;27;20015;-70
2023/02/16 10:10:42;;;;;;;8.27;6.07;;;;;;;;;;5121280;27;20035;-70
2023/02/16 10:13:16;;;;;;;8.15;5.97;;;;;;;;;;5122117;27;20026;-70
2023/02/16 10:15:44;;;;;;;8.60;6.35;;;;;;;;;;5117956;27;20054;-70
2023/02/16 10:18:16;;;;;;;9.57;6.43;;;;;;;;;;5121672;27;20060;-69
2023/02/16 10:20:43;;;;;;;8.32;5.70;;;;;;;;;;5122873;27;20113;-70
2023/02/16 10:23:13;;;;;;;7.40;5.50;;;;;;;;;;5125350;27;20015;-72
2023/02/16 10:25:39;;;;;;;8.63;5.40;;;;;;;;;;5122799;27;20037;-70
2023/02/16 10:28:12;;;;;;;7.35;5.43;;;;;;;;;;5123202;27;20022;-80
2023/02/16 10:30:42;;;;;;;6.65;5.35;;;;;;;;;;5130447;27;20052;-70
2023/02/16 10:33:15;;;;;;;6.85;5.60;;;;;;;;;;5125278;27;20027;-70
2023/02/16 10:35:49;;;;;;;7.82;5.10;;;;;;;;;;5120161;27;20113;-69
2023/02/16 10:38:26;;;;;;;6.60;5.45;;;;;;;;;;5113599;27;20443;-70
2023/02/16 10:41:19;;;;;;;7.90;5.20;;;;;;;;;;5120793;27;20122;-71
2023/02/16 10:43:45;;;;;;;;;;;;;;;;;;5084142;27;20039;-71
2023/02/16 10:46:22;;;;;;;7.25;5.43;;;;;;;;;;5119226;27;19918;-80
2023/02/16 10:48:51;;;;;;;6.68;4.97;;;;;;;;;;5117115;27;20015;-72
2023/02/16 10:51:18;;;;;;;6.65;5.65;;;;;;;;;;5122480;27;20057;-71
2023/02/16 10:53:47;;;;;;;7.05;5.53;;;;;;;;;;5123625;27;20619;-72
2023/02/16 10:56:32;;;;;;;9.10;5.32;;;;;;;;;;5127268;27;20027;-72
2023/02/16 10:58:59;;;;;;;8.35;5.45;;;;;;;;;;5121329;27;20045;-72
2023/02/16 11:01:35;;;;;;;10.57;6.35;;;;;;;;;;5120760;27;20059;-72
2023/02/16 11:04:01;;;;;;;8.82;5.95;;;;;;;;;;5124821;27;20032;-71
2023/02/16 11:06:28;;;;;;;7.78;5.50;;;;;;;;;;5120010;27;20024;-71
2023/02/16 11:08:59;;;;;;;6.05;4.90;;;;;;;;;;5116338;27;20024;-72
2023/02/16 11:11:36;;;;;;;10.35;4.68;;;;;;;;;;5116940;27;20019;-72
2023/02/16 11:14:03;;;;;;;6.47;4.38;;;;;;;;;;5097825;27;20655;-72
2023/02/16 11:16:30;;;;;;;6.47;4.93;;;;;;;;;;5125341;27;20031;-71
2023/02/16 11:18:59;;;;;;;5.78;4.38;;;;;;;;;;5117972;27;20029;-74
2023/02/16 11:21:54;;;;;;;7.82;5.68;;;;;;;;;;5126028;27;20023;-71
2023/02/16 11:24:32;;;;;;;7.50;5.10;;;;;;;;;;5112943;27;20099;-70
2023/02/16 11:27:18;;;;;;;5.85;4.47;;;;;;;;;;5122536;27;20094;-71
2023/02/16 11:29:45;;;;;;;6.63;4.95;;;;;;;;;;5118093;27;20849;-75
2023/02/16 11:32:12;;;;;;;6.50;5.40;;;;;;;;;;5123319;27;20027;-71
2023/02/16 11:34:46;;;;;;;5.82;4.97;;;;;;;;;;5122819;27;20486;-70
2023/02/16 11:37:18;;;;;;;9.23;5.70;;;;;;;;;;5117517;27;20411;-77
2023/02/16 11:39:49;;;;;;;7.93;5.93;;;;;;;;;;5122094;27;20027;-71
2023/02/16 11:42:22;;;;;;;7.25;5.50;;;;;;;;;;5116791;27;21427;-81
2023/02/16 11:44:53;;;;;;;8.40;6.43;;;;;;;;;;5116329;27;20030;-71
2023/02/16 11:47:22;;;;;;;6.10;5.50;;;;;;;;;;5120695;27;20382;-70
2023/02/16 11:49:50;;;;;;;7.00;5.78;;;;;;;;;;5111651;27;20067;-70
2023/02/16 11:52:25;;;;;;;7.45;6.15;;;;;;;;;;5117426;27;20023;-71
2023/02/16 11:54:53;;;;;;;10.57;6.35;;;;;;;;;;5120532;27;20568;-72
2023/02/16 11:57:27;;;;;;;8.50;6.15;;;;;;;;;;5124170;27;20526;-80
2023/02/16 11:59:54;;;;;;;7.47;5.93;;;;;;;;;;5119409;27;20225;-73
2023/02/16 12:02:26;;;;;;;8.32;6.75;;;;;;;;;;5114166;27;20023;-70
2023/02/16 12:04:59;;;;;;;7.70;6.30;;;;;;;;;;5115977;27;20106;-80
2023/02/16 12:07:28;;;;;;;8.23;5.97;;;;;;;;;;5117905;27;20037;-73
2023/02/16 12:10:08;;;;;;;9.63;6.65;;;;;;;;;;5103273;27;20038;-73
2023/02/16 12:12:35;;;;;;;11.95;6.45;;;;;;;;;;5119765;27;20019;-69
2023/02/16 12:15:16;;;;;;;9.48;6.85;;;;;;;;;;5120985;27;20043;-71
2023/02/16 12:17:53;;;;;;;8.70;5.93;;;;;;;;;;5123848;27;20031;-74
2023/02/16 12:20:22;;;;;;;11.30;6.53;;;;;;;;;;5122650;27;20055;-70
2023/02/16 12:22:52;;;;;;;8.32;5.95;;;;;;;;;;5122439;27;20366;-70
2023/02/16 12:25:22;;;;;;;8.88;6.30;;;;;;;;;;5116233;27;20027;-71
2023/02/16 12:27:59;;;;;;;7.82;6.18;;;;;;;;;;5123423;27;20015;-72
2023/02/16 12:30:36;;;;;;;8.90;6.45;;;;;;;;;;5124699;27;20031;-75
2023/02/16 12:33:25;;;;;;;10.23;7.28;;;;;;;;;;5114056;27;20498;-70
2023/02/16 12:35:54;;;;;;;8.45;6.43;;;;;;;;;;5122355;27;20510;-71
2023/02/16 12:38:37;;;;;;;8.02;5.97;;;;;;;;;;5123065;27;20111;-72
2023/02/16 12:41:15;;;;;;;7.53;5.70;;;;;;;;;;5124501;27;20405;-71
2023/02/16 12:43:44;;;;;;;8.52;6.47;;;;;;;;;;5124353;27;20031;-72
2023/02/16 12:46:13;;;;;;;9.18;7.22;;;;;;;;;;5121543;27;20027;-73
2023/02/16 12:48:44;;;;;;;9.93;6.25;;;;;;;;;;5120682;27;20031;-73
2023/02/16 12:51:14;;;;;;;6.93;5.70;;;;;;;;;;5128057;27;20019;-71
2023/02/16 12:53:45;;;;;;;7.13;6.22;;;;;;;;;;5124885;27;20102;-70
2023/02/16 12:56:24;;;;;;;11.80;7.43;;;;;;;;;;5125820;27;20477;-71
2023/02/16 12:58:54;;;;;;;8.18;7.03;;;;;;;;;;5105936;27;20023;-71
2023/02/16 13:01:23;;;;;;;12.20;7.28;;;;;;;;;;5122183;27;20387;-71
2023/02/16 13:04:08;;;;;;;7.93;7.00;;;;;;;;;;5122795;27;20023;-72
2023/02/16 13:06:43;;;;;;;9.40;6.78;;;;;;;;;;5099472;27;20126;-71
2023/02/16 13:09:13;;;;;;;8.77;6.57;;;;;;;;;;5126527;27;20046;-71
2023/02/16 13:11:45;;;;;;;10.32;7.40;;;;;;;;;;5125228;27;20143;-71
2023/02/16 13:14:16;;;;;;;14.60;7.55;;;;;;;;;;5129014;27;20039;-71
2023/02/16 13:16:54;;;;;;;8.95;7.07;;;;;;;;;;5128088;27;20246;-72
2023/02/16 13:19:21;;;;;;;8.20;6.90;;;;;;;;;;5117956;27;20710;-74
2023/02/16 13:21:54;;;;;;;11.15;7.07;;;;;;;;;;5128445;27;20042;-72
2023/02/16 13:24:38;;;;;;;10.48;6.38;;;;;;;;;;5122732;27;20036;-76
2023/02/16 13:27:17;;;;;;;10.45;6.15;;;;;;;;;;5123085;27;20011;-70
2023/02/16 13:29:53;;;;;;;8.27;5.80;;;;;;;;;;5116957;27;20035;-70
2023/02/16 13:32:32;;;;;;;9.18;5.28;;;;;;;;;;5100341;27;20036;-70
2023/02/16 13:34:58;;;;;;;9.18;6.13;;;;;;;;;;5119842;27;20086;-70
2023/02/16 13:37:43;;;;;;;9.75;5.90;;;;;;;;;;5125249;27;20034;-71
2023/02/16 13:40:19;;;;;;;7.68;5.72;;;;;;;;;;5122046;27;20873;-73
2023/02/16 13:42:45;;;;;;;10.23;5.20;;;;;;;;;;5114312;27;20034;-71
2023/02/16 13:45:18;;;;;;;7.72;5.75;;;;;;;;;;5121983;27;20027;-73
2023/02/16 13:47:44;;;;;;;7.55;5.22;;;;;;;;;;5123699;27;20031;-74
2023/02/16 13:50:22;;;;;;;6.40;5.05;;;;;;;;;;5124062;27;20099;-71
2023/02/16 13:52:49;;;;;;;9.77;5.47;;;;;;;;;;5117832;27;20077;-71
2023/02/16 13:55:24;;;;;;;9.82;5.05;;;;;;;;;;5124618;27;20154;-70
2023/02/16 13:57:54;;;;;;;7.32;4.80;;;;;;;;;;5102519;27;20031;-70
2023/02/16 14:00:35;;;;;;;5.65;4.50;;;;;;;;;;5116880;27;20047;-71
2023/02/16 14:03:09;;;;;;;6.53;5.10;;;;;;;;;;5128779;27;20027;-70
2023/02/16 14:05:37;;;;;;;7.78;4.93;;;;;;;;;;5103601;27;20019;-70
2023/02/16 14:08:14;;;;;;;6.78;5.00;;;;;;;;;;5124805;27;20138;-70
2023/02/16 14:10:53;;;;;;;15.73;5.75;;;;;;;;;;5121561;27;20046;-70
2023/02/16 14:13:25;;;;;;;6.53;5.28;;;;;;;;;;5120385;27;20034;-71
2023/02/16 14:15:52;;;;;;;7.15;4.95;;;;;;;;;;5123526;27;20051;-71
2023/02/16 14:18:31;;;;;;;7.50;4.93;;;;;;;;;;5121532;27;20466;-83
2023/02/16 14:21:02;;;;;;;6.82;5.13;;;;;;;;;;5104111;27;20039;-70
2023/02/16 14:23:33;;;;;;;6.13;5.25;;;;;;;;;;5104730;27;20106;-78
2023/02/16 14:26:04;;;;;;;9.82;5.38;;;;;;;;;;5101473;27;20022;-71
2023/02/16 14:28:36;;;;;;;5.67;4.63;;;;;;;;;;5126833;27;20071;-82
2023/02/16 14:31:04;;;;;;;6.07;4.93;;;;;;;;;;5121578;27;20050;-71
2023/02/16 14:33:32;;;;;;;6.63;5.13;;;;;;;;;;5121075;27;20024;-70
2023/02/16 14:35:58;;;;;;;6.70;4.80;;;;;;;;;;5121082;27;20049;-72
2023/02/16 14:38:28;;;;;;;5.60;4.93;;;;;;;;;;5118046;27;20027;-71
2023/02/16 14:40:56;;;;;;;6.82;5.03;;;;;;;;;;5115819;27;20724;-70
2023/02/16 14:43:44;;;;;;;5.93;4.68;;;;;;;;;;5122108;27;20513;-71
2023/02/16 14:46:11;;;;;;;6.82;5.18;;;;;;;;;;5124346;27;20022;-71
2023/02/16 14:48:52;;;;;;;6.95;5.47;;;;;;;;;;5118267;27;20100;-71
2023/02/16 14:51:39;;;;;;;9.25;5.38;;;;;;;;;;5115168;27;20023;-72
2023/02/16 14:54:30;;;;;;;6.50;4.75;;;;;;;;;;5120424;27;20026;-71
2023/02/16 14:57:02;;;;;;;8.02;5.95;;;;;;;;;;5124245;27;20062;-70
2023/02/16 14:59:41;;;;;;;6.60;5.40;;;;;;;;;;5121490;27;20019;-70
2023/02/16 15:02:26;;;;;;;6.05;5.05;;;;;;;;;;5121301;27;20034;-70
2023/02/16 15:04:53;;;;;;;6.50;4.95;;;;;;;;;;5119804;27;20023;-71
2023/02/16 15:07:20;;;;;;;6.53;5.00;;;;;;;;;;5121128;27;20027;-70
2023/02/16 15:09:47;;;;;;;6.70;4.63;;;;;;;;;;5116106;27;20522;-77
2023/02/16 15:12:23;;;;;;;6.45;5.10;;;;;;;;;;5121512;27;20787;-74
2023/02/16 15:14:58;;;;;;;5.50;4.47;;;;;;;;;;5117158;27;20536;-70
2023/02/16 15:17:27;;;;;;;7.22;5.05;;;;;;;;;;5117537;27;20133;-70
2023/02/16 15:19:55;;;;;;;8.40;5.85;;;;;;;;;;5116350;27;20031;-71
2023/02/16 15:22:23;;;;;;;7.88;5.57;;;;;;;;;;5121328;27;20015;-72
2023/02/16 15:25:01;;;;;;;7.15;5.20;;;;;;;;;;5092097;27;20546;-73
2023/02/16 15:27:28;;;;;;;6.32;5.10;;;;;;;;;;5120367;27;20105;-77
2023/02/16 15:30:13;;;;;;;6.95;5.47;;;;;;;;;;5121958;27;20059;-73
2023/02/16 15:32:40;;;;;;;6.65;4.93;;;;;;;;;;5118893;27;20098;-77
2023/02/16 15:35:21;;;;;;;5.57;4.90;;;;;;;;;;5124939;27;20497;-71
2023/02/16 15:37:47;;;;;;;9.43;5.32;;;;;;;;;;5122040;27;20027;-71
2023/02/16 15:40:15;;;;;;;7.43;6.03;;;;;;;;;;5124080;27;20027;-77
2023/02/16 15:42:44;;;;;;;7.50;5.72;;;;;;;;;;5118682;27;20102;-70
2023/02/16 15:45:31;;;;;;;6.38;5.10;;;;;;;;;;5122219;27;20022;-79
2023/02/16 15:48:14;;;;;;;7.25;5.10;;;;;;;;;;5117972;27;20091;-74
2023/02/16 15:50:41;;;;;;;5.95;5.15;;;;;;;;;;5114654;27;20482;-70
2023/02/16 15:53:10;;;;;;;4.93;4.43;;;;;;;;;;5121257;27;20030;-70